METAR Data
IDs: Format: Raw Decoded Include TAF

Data at: 2117 UTC 19 May 2019

PARC 192056Z AUTO 30008KT 10SM CLR 13/01 A2980 RMK AO2 SLP120 T01330006 56008
PARC 191956Z AUTO 34005KT 10SM CLR 13/01 A2980 RMK AO2 SLP123 T01280006
PARC 191856Z AUTO 35007KT 10SM CLR 12/00 A2981 RMK AO2 SLP125 T01170000
PARC 191756Z AUTO 34008KT 10SM CLR 11/00 A2982 RMK AO2 SLP129 T01060000 10106 20028 58001
PARC 191656Z AUTO 36005KT 10SM CLR 08/00 A2983 RMK AO2 SLP132 T00830000
PARC 191556Z AUTO 03004KT 10SM CLR 06/00 A2983 RMK AO2 SLP133 T00610000
PARC 191456Z AUTO 01006KT 10SM CLR 05/M01 A2983 RMK AO2 SLP131 T00501006 58002
PARC 191356Z AUTO 36003KT 10SM CLR 03/M01 A2983 RMK AO2 SLP136 T00281006
PARC 191256Z AUTO 02006KT 10SM OVC075 03/M01 A2984 RMK AO2 SLP137 T00281006
PARC 191156Z AUTO 02004KT 10SM FEW080 03/M01 A2983 RMK AO2 SLP135 T00281006 10072 20028 51001
PARC 191056Z AUTO 36004KT 10SM SCT065 OVC080 03/M01 A2983 RMK AO2 SLP135 T00331006
PARC 190956Z AUTO 36005KT 10SM OVC080 03/M01 A2983 RMK AO2 SLP135 T00331006
PARC 190856Z AUTO 30004KT 10SM CLR 04/M01 A2983 RMK AO2 SLP133 T00441011 401220000 52005
PARC 190756Z AUTO 00000KT 10SM CLR 05/M01 A2982 RMK AO2 SLP131 T00501006
PARC 190656Z AUTO 01003KT 10SM FEW075 06/M01 A2982 RMK AO2 SLP130 T00561006
PARC 190556Z AUTO 00000KT 10SM CLR 07/00 A2981 RMK AO2 SLP128 T00720000 10122 20072 51003
PARC 190456Z AUTO 00000KT 10SM CLR 09/M01 A2981 RMK AO2 SLP127 T00941006
PARC 190356Z AUTO 27004KT 10SM CLR 10/M01 A2980 RMK AO2 SLP125 T01001006
PARC 190256Z AUTO 31003KT 10SM CLR 11/M01 A2980 RMK AO2 SLP125 T01111006 56002
PARC 190156Z AUTO 32003KT 10SM CLR 12/M01 A2980 RMK AO2 SLP126 T01171006
PARC 190056Z AUTO 31004KT 10SM CLR 12/M01 A2981 RMK AO2 SLP129 T01221006
PARC 182356Z AUTO VRB05KT 10SM CLR 12/M01 A2981 RMK AO2 SLP130 T01171006 10117 20078 50000
PARC 182256Z AUTO 30004KT 10SM CLR 11/M01 A2981 RMK AO2 SLP131 T01111006
PARC 182156Z AUTO 33006KT 10SM BKN080 11/M01 A2981 RMK AO2 SLP129 T01111011
PARC 182056Z AUTO 35004KT 10SM CLR 11/M01 A2981 RMK AO2 SLP127 T01061011 50003
PARC 181956Z AUTO VRB03KT 10SM CLR 09/M02 A2981 RMK AO2 SLP129 T00941017
PARC 181756Z AUTO 35007KT 10SM CLR 08/M02 A2980 RMK AO2 SLP124 T00781022 10078 20000 50002
PARC 181656Z AUTO 35007KT 10SM CLR 07/M02 A2980 RMK AO2 SLP126 T00671017
PARC 181556Z AUTO 01008KT 10SM CLR 05/M02 A2980 RMK AO2 SLP125 T00501022
PARC 181456Z AUTO 01005KT 10SM CLR 03/M03 A2979 RMK AO2 SLP125 T00331028 50001
PARC 181356Z AUTO 35006KT 10SM CLR 01/M03 A2980 RMK AO2 SLP127 T00111028 FZRANO
PARC 181256Z AUTO 01006KT 10SM CLR 00/M03 A2980 RMK AO2 SLP129 T00001033 FZRANO
PARC 181156Z AUTO 01005KT 10SM CLR 00/M03 A2979 RMK AO2 SLP126 T00001028 10061 20000 53007 FZRANO
PARC 181056Z AUTO 36005KT 10SM CLR 01/M03 A2978 RMK AO2 SLP122 T00111033 FZRANO
PARC 180956Z AUTO 36006KT 10SM CLR 02/M03 A2977 RMK AO2 SLP119 T00171033 FZRANO